Time;durP1;ratioP1;P1;durP2;ratioP2;P2;SDS_P1;SDS_P2;PMS_P1;PMS_P2;Temp;Humidity;BMP_temperature;BMP_pressure;BME280_temperature;BME280_humidity;BME280_pressure;Samples;Min_cycle;Max_cycle;Signal;HPM_P1;HPM_P2
2022/04/16 00:00:58;;;;;;;24.13;11.80;;;;;;;11.62;64.12;101391.09;4990397;28;20097;-40
2022/04/16 00:03:25;;;;;;;27.60;12.50;;;;;;;11.60;64.88;101395.38;4980907;28;20042;-39
2022/04/16 00:05:53;;;;;;;25.13;13.65;;;;;;;11.59;64.09;101398.81;4987532;28;20465;-43
2022/04/16 00:08:21;;;;;;;28.15;12.75;;;;;;;11.54;64.67;101396.16;4981999;28;21933;-38
2022/04/16 00:10:47;;;;;;;27.88;12.93;;;;;;;11.52;63.99;101398.72;4979258;28;20074;-42
2022/04/16 00:13:16;;;;;;;28.10;13.95;;;;;;;11.50;64.33;101391.75;4977198;28;20450;-43
2022/04/16 00:15:46;;;;;;;30.88;15.35;;;;;;;11.48;64.32;101398.66;4985500;28;20418;-43
2022/04/16 00:18:13;;;;;;;28.10;12.70;;;;;;;11.43;63.54;101396.00;4984416;28;20065;-39
2022/04/16 00:20:44;;;;;;;;;;;;;;;11.22;65.02;101397.41;4985744;28;20057;-39
2022/04/16 00:23:12;;;;;;;25.90;11.75;;;;;;;11.29;64.65;101399.22;4985856;28;19961;-39
2022/04/16 00:25:41;;;;;;;29.63;12.75;;;;;;;11.28;63.87;101407.00;4985690;28;20125;-42
2022/04/16 00:28:08;;;;;;;30.15;13.43;;;;;;;11.18;64.20;101403.41;4986846;28;20117;-40
2022/04/16 00:30:37;;;;;;;30.20;15.40;;;;;;;11.15;64.71;101405.94;4984315;28;20620;-42
2022/04/16 00:33:07;;;;;;;33.25;13.05;;;;;;;11.12;64.18;101401.56;4982966;28;20113;-42
2022/04/16 00:35:34;;;;;;;26.60;12.90;;;;;;;11.12;64.36;101411.06;4983338;28;20118;-41
2022/04/16 00:38:01;;;;;;;30.88;14.07;;;;;;;11.08;65.01;101404.94;4975223;28;20059;-39
2022/04/16 00:40:27;;;;;;;29.80;13.95;;;;;;;11.02;64.95;101407.44;4971201;28;20094;-40
2022/04/16 00:42:54;;;;;;;25.38;12.05;;;;;;;10.98;65.09;101403.91;4976420;28;20101;-44
2022/04/16 00:45:22;;;;;;;32.10;15.18;;;;;;;10.96;65.20;101405.63;4972918;28;20411;-42
2022/04/16 00:47:49;;;;;;;29.77;13.23;;;;;;;10.95;65.13;101403.00;4972994;28;20073;-39
2022/04/16 00:50:16;;;;;;;29.27;14.05;;;;;;;10.92;64.39;101404.66;4969961;28;20069;-39
2022/04/16 00:52:44;;;;;;;30.45;12.85;;;;;;;10.92;64.47;101409.00;4972512;28;20047;-40
2022/04/16 00:55:12;;;;;;;30.25;13.20;;;;;;;10.87;64.40;101410.63;4970936;28;20050;-39
2022/04/16 00:57:40;;;;;;;29.90;13.25;;;;;;;10.85;64.59;101408.03;4972491;28;20058;-45
2022/04/16 01:00:09;;;;;;;25.65;13.30;;;;;;;10.83;65.17;101408.81;4978079;28;20054;-39
2022/04/16 01:02:37;;;;;;;30.27;13.88;;;;;;;10.78;64.62;101401.84;4968188;28;20648;-39
2022/04/16 01:05:05;;;;;;;27.08;13.98;;;;;;;10.74;65.20;101410.41;4981857;28;20046;-39
2022/04/16 01:07:32;;;;;;;32.28;15.15;;;;;;;10.66;64.55;101411.97;4981298;28;20046;-44
2022/04/16 01:09:59;;;;;;;32.15;14.50;;;;;;;10.59;65.43;101411.00;4972139;28;20043;-40
2022/04/16 01:12:26;;;;;;;30.85;14.23;;;;;;;10.58;65.47;101413.56;4968196;28;20136;-39
2022/04/16 01:14:54;;;;;;;33.50;13.95;;;;;;;10.57;64.89;101423.03;4974569;28;20481;-39
2022/04/16 01:17:21;;;;;;;26.33;12.82;;;;;;;10.56;65.19;101420.41;4973020;28;20562;-39
2022/04/16 01:19:47;;;;;;;31.08;14.20;;;;;;;10.53;64.96;101422.13;4983855;28;20050;-39
2022/04/16 01:22:14;;;;;;;31.23;13.68;;;;;;;10.52;65.10;101420.38;4984267;28;20130;-39
2022/04/16 01:24:43;;;;;;;29.60;13.70;;;;;;;10.49;65.39;101419.41;4981902;28;20174;-40
2022/04/16 01:27:11;;;;;;;34.85;14.50;;;;;;;10.47;64.87;101421.97;5006677;28;20054;-40
2022/04/16 01:29:37;;;;;;;34.03;14.77;;;;;;;10.44;64.90;101427.09;4982765;28;20108;-41
2022/04/16 01:32:05;;;;;;;32.60;15.45;;;;;;;10.43;65.08;101414.97;4986085;28;20050;-42
2022/04/16 01:34:32;;;;;;;30.45;13.90;;;;;;;10.39;65.35;101413.16;4980199;28;20129;-41
2022/04/16 01:37:02;;;;;;;33.92;14.20;;;;;;;10.35;65.46;101417.41;4978928;28;20054;-40
2022/04/16 01:39:29;;;;;;;31.75;15.35;;;;;;;10.29;65.25;101412.97;4984735;28;20047;-40
2022/04/16 01:41:57;;;;;;;29.73;13.70;;;;;;;10.27;65.19;101412.06;4979267;28;20055;-38
2022/04/16 01:44:25;;;;;;;33.50;14.30;;;;;;;10.25;65.59;101410.28;4971840;28;20047;-39
2022/04/16 01:47:10;;;;;;;29.48;13.55;;;;;;;10.21;65.58;101404.19;4971457;28;20053;-40
2022/04/16 01:49:37;;;;;;;33.63;15.15;;;;;;;10.20;65.84;101415.34;4970719;28;20062;-39
2022/04/16 01:52:04;;;;;;;31.85;15.32;;;;;;;10.13;65.72;101416.06;4968974;28;20101;-40
2022/04/16 01:54:31;;;;;;;33.50;15.13;;;;;;;10.09;65.09;101417.72;4977509;28;20101;-40
2022/04/16 01:56:57;;;;;;;33.53;14.25;;;;;;;10.06;65.11;101414.22;4977530;28;20062;-40
2022/04/16 01:59:25;;;;;;;36.53;16.30;;;;;;;9.98;66.10;101422.69;4977759;28;20070;-40
2022/04/16 02:01:51;;;;;;;35.20;15.75;;;;;;;9.92;67.01;101417.38;4982446;28;20054;-40
2022/04/16 02:04:18;;;;;;;38.67;16.15;;;;;;;9.88;67.05;101421.63;4983740;28;20050;-41
2022/04/16 02:06:45;;;;;;;32.88;15.95;;;;;;;9.77;67.30;101418.75;4985909;28;20442;-41
2022/04/16 02:09:11;;;;;;;34.45;15.82;;;;;;;9.72;66.84;101415.22;4978606;28;20652;-41
2022/04/16 02:11:38;;;;;;;33.17;15.35;;;;;;;9.74;66.68;101423.91;4986972;28;20050;-40
2022/04/16 02:14:05;;;;;;;32.03;14.90;;;;;;;9.74;66.29;101429.06;4979849;28;20061;-40
2022/04/16 02:16:31;;;;;;;32.67;14.27;;;;;;;9.75;66.02;101420.47;4985786;28;20092;-40
2022/04/16 02:19:00;;;;;;;33.13;15.38;;;;;;;9.76;65.66;101427.38;4982519;28;20093;-40
2022/04/16 02:21:27;;;;;;;37.00;15.82;;;;;;;9.76;66.04;101427.38;4988250;28;20050;-40
2022/04/16 02:23:54;;;;;;;29.52;14.27;;;;;;;9.74;66.31;101431.66;4985684;28;20054;-42
2022/04/16 02:26:20;;;;;;;29.98;14.23;;;;;;;9.73;65.76;101435.06;4985722;28;20062;-40
2022/04/16 02:28:48;;;;;;;37.70;15.18;;;;;;;9.72;65.74;101445.38;4983976;28;20046;-42
2022/04/16 02:31:15;;;;;;;37.13;16.20;;;;;;;9.70;65.54;101442.78;4982660;28;20479;-37
2022/04/16 02:33:41;;;;;;;34.58;15.57;;;;;;;9.68;65.88;101443.56;4987430;28;20049;-39
2022/04/16 02:36:08;;;;;;;36.95;17.05;;;;;;;9.66;65.80;101440.06;4987733;28;20466;-43
2022/04/16 02:38:35;;;;;;;35.40;16.58;;;;;;;9.63;65.49;101451.22;4986350;28;20042;-38
2022/04/16 02:41:01;;;;;;;38.35;16.42;;;;;;;9.61;66.22;101443.44;4987370;28;20051;-40
2022/04/16 02:43:28;;;;;;;36.05;16.48;;;;;;;9.61;65.89;101447.72;4981271;28;20538;-41
2022/04/16 02:48:41;;;;;;;41.72;17.27;;;;;;;9.59;66.27;101439.91;4984634;28;20046;-40
2022/04/16 02:51:08;;;;;;;38.83;16.77;;;;;;;9.61;66.79;101447.72;4988076;28;20093;-40
2022/04/16 02:53:34;;;;;;;39.20;17.13;;;;;;;9.60;65.90;101451.16;4982248;28;20046;-38
2022/04/16 02:56:01;;;;;;;34.28;15.50;;;;;;;9.61;66.13;101450.28;4983238;28;20074;-41
2022/04/16 02:58:28;;;;;;;39.67;16.27;;;;;;;9.59;65.94;101444.22;4989738;28;20042;-40
2022/04/16 03:00:54;;;;;;;45.08;18.20;;;;;;;9.60;66.20;101452.00;4979933;28;20077;-43
2022/04/16 03:03:22;;;;;;;39.63;18.13;;;;;;;9.60;66.75;101449.41;4979000;28;20046;-41
2022/04/16 03:05:48;;;;;;;43.80;16.40;;;;;;;9.62;66.30;101454.63;4985928;28;20474;-40
2022/04/16 03:08:15;;;;;;;37.53;17.15;;;;;;;9.61;66.68;101453.78;4978081;28;20081;-40
2022/04/16 03:10:42;;;;;;;42.05;18.23;;;;;;;9.62;66.87;101457.22;4983905;28;20751;-42
2022/04/16 03:13:10;;;;;;;36.58;16.42;;;;;;;9.62;66.94;101454.63;4979943;28;20070;-45
2022/04/16 03:18:24;;;;;;;36.17;17.33;;;;;;;9.58;67.18;101457.97;4986866;28;20368;-38
2022/04/16 03:20:51;;;;;;;40.13;17.58;;;;;;;9.56;66.87;101455.34;4985833;28;20112;-42
2022/04/16 03:23:17;;;;;;;38.30;18.40;;;;;;;9.54;66.99;101461.34;4987241;28;20625;-39
2022/04/16 03:25:44;;;;;;;29.85;15.20;;;;;;;9.51;66.28;101472.47;4981895;28;20054;-40
2022/04/16 03:28:11;;;;;;;28.65;13.35;;;;;;;9.41;66.97;101463.63;4984489;28;20105;-40
2022/04/16 03:30:38;;;;;;;32.38;15.00;;;;;;;9.34;65.84;101472.06;4982185;28;20710;-44
2022/04/16 03:33:05;;;;;;;34.80;15.63;;;;;;;9.29;66.56;101465.91;4985785;28;20046;-42
2022/04/16 03:35:32;;;;;;;34.58;15.50;;;;;;;9.26;66.52;101466.72;4983651;28;20093;-44
2022/04/16 03:37:58;;;;;;;35.17;17.30;;;;;;;9.26;66.89;101470.16;4984652;28;20395;-42
2022/04/16 03:40:26;;;;;;;37.95;15.70;;;;;;;9.28;66.45;101469.34;4985861;28;20479;-45
2022/04/16 03:42:58;;;;;;;32.30;15.55;;;;;;;9.30;67.07;101478.00;4956191;28;20152;-39
2022/04/16 03:45:28;;;;;;;35.42;16.55;;;;;;;9.32;67.26;101484.09;4972361;28;20561;-40
2022/04/16 03:47:56;;;;;;;33.63;14.88;;;;;;;9.32;67.03;101481.50;4973642;28;20077;-40
2022/04/16 03:50:25;;;;;;;31.83;15.30;;;;;;;9.29;66.73;101476.25;4981412;28;20129;-39
2022/04/16 03:52:53;;;;;;;38.50;17.08;;;;;;;9.29;67.01;101476.25;4972836;28;20050;-43
2022/04/16 04:00:59;;;;;;;33.67;17.55;;;;;;;9.15;67.24;101479.34;4992961;28;20469;-44
2022/04/16 04:03:26;;;;;;;41.85;17.08;;;;;;;9.10;67.49;101475.75;4983963;28;20085;-42
2022/04/16 04:05:54;;;;;;;38.30;17.05;;;;;;;9.08;68.14;101482.59;4965055;28;20051;-41
2022/04/16 04:08:22;;;;;;;40.63;17.30;;;;;;;9.04;68.01;101491.09;5012231;28;20564;-43
2022/04/16 04:10:49;;;;;;;38.92;17.10;;;;;;;8.99;68.33;101494.44;4994427;28;20120;-39
2022/04/16 04:13:16;;;;;;;40.08;16.70;;;;;;;8.97;67.58;101496.13;4984291;28;20100;-41
2022/04/16 04:15:44;;;;;;;37.25;16.45;;;;;;;8.95;66.91;101497.78;4984985;28;20101;-40
2022/04/16 04:18:11;;;;;;;35.35;16.13;;;;;;;8.93;67.88;101499.44;4983877;28;20108;-39
2022/04/16 04:20:37;;;;;;;39.90;16.45;;;;;;;8.91;67.74;101495.09;4983926;28;20120;-38
2022/04/16 04:23:04;;;;;;;42.22;17.90;;;;;;;8.83;67.83;101500.03;4981466;28;20564;-40
2022/04/16 04:25:31;;;;;;;37.78;17.90;;;;;;;8.78;69.35;101493.88;4977458;28;20435;-40
2022/04/16 04:27:58;;;;;;;41.08;18.23;;;;;;;8.70;69.67;101502.28;4982709;28;20046;-40
2022/04/16 04:30:25;;;;;;;44.15;18.52;;;;;;;8.70;68.34;101504.84;4978132;28;20100;-39
2022/04/16 04:32:51;;;;;;;33.42;15.60;;;;;;;8.69;68.64;101508.28;4979989;28;20577;-43
2022/04/16 04:35:18;;;;;;;33.42;15.18;;;;;;;8.67;68.70;101511.63;4981456;28;20050;-40
2022/04/16 04:37:45;;;;;;;33.92;15.55;;;;;;;8.64;67.94;101502.06;4981151;28;20085;-41
2022/04/16 04:40:12;;;;;;;42.45;17.75;;;;;;;8.62;67.44;101514.09;4984597;28;20046;-42
2022/04/16 04:42:39;;;;;;;36.72;17.38;;;;;;;8.59;68.44;101517.47;4981698;28;20548;-46
2022/04/16 04:45:08;;;;;;;39.63;17.73;;;;;;;8.55;67.51;101514.75;4984041;28;20051;-42
2022/04/16 04:47:34;;;;;;;39.78;17.67;;;;;;;8.51;68.67;101515.44;4982321;28;20042;-40
2022/04/16 04:50:01;;;;;;;39.90;17.17;;;;;;;8.51;67.56;101512.88;4984358;28;20106;-41
2022/04/16 04:52:29;;;;;;;42.15;18.70;;;;;;;8.46;67.71;101517.88;4979108;28;20457;-42
2022/04/16 04:54:58;;;;;;;37.00;16.98;;;;;;;8.45;68.46;101514.41;4982820;28;20054;-42
2022/04/16 04:57:26;;;;;;;39.10;17.10;;;;;;;8.44;67.71;101525.59;4974581;28;20097;-42
2022/04/16 04:59:53;;;;;;;32.33;14.80;;;;;;;8.41;67.86;101525.47;4994675;28;20046;-39
2022/04/16 05:02:20;;;;;;;35.38;15.73;;;;;;;8.37;68.60;101533.97;4979376;28;20050;-41
2022/04/16 05:04:47;;;;;;;35.78;15.75;;;;;;;8.36;68.22;101533.13;4971790;28;20178;-41
2022/04/16 05:07:14;;;;;;;36.05;14.77;;;;;;;8.36;68.35;101527.06;4981509;28;20116;-42
2022/04/16 05:09:40;;;;;;;33.03;14.82;;;;;;;8.33;67.19;101529.53;4982825;28;20520;-40
2022/04/16 05:12:07;;;;;;;39.13;16.42;;;;;;;8.35;68.23;101520.16;4986050;28;20085;-40
2022/04/16 05:14:34;;;;;;;38.28;17.30;;;;;;;8.36;68.41;101527.06;4982789;28;20114;-39
2022/04/16 05:17:01;;;;;;;40.22;18.00;;;;;;;8.40;67.97;101530.59;4982173;28;20438;-41
2022/04/16 05:19:29;;;;;;;39.05;18.58;;;;;;;8.41;68.95;101520.31;4985469;28;20471;-39
2022/04/16 05:21:56;;;;;;;40.45;17.65;;;;;;;8.45;68.70;101521.31;4979014;28;20053;-38
2022/04/16 05:24:23;;;;;;;33.90;15.90;;;;;;;8.45;68.34;101527.31;4981975;28;20046;-42
2022/04/16 05:26:49;;;;;;;38.50;16.88;;;;;;;8.46;68.70;101529.09;4982065;28;20058;-39
2022/04/16 05:29:17;;;;;;;36.00;15.98;;;;;;;8.48;67.67;101526.56;4985442;28;20119;-45
2022/04/16 05:31:44;;;;;;;36.95;16.25;;;;;;;8.53;68.01;101534.44;4984309;28;20053;-43
2022/04/16 05:34:26;;;;;;;36.53;16.70;;;;;;;8.54;67.67;101533.66;4988708;28;20046;-40
2022/04/16 05:36:52;;;;;;;42.95;16.98;;;;;;;8.52;68.85;101531.00;4980313;28;21047;-40
2022/04/16 05:39:19;;;;;;;36.30;16.95;;;;;;;8.54;67.79;101538.81;4977234;28;20093;-40
2022/04/16 05:41:46;;;;;;;36.63;17.23;;;;;;;8.56;67.61;101537.16;4984019;28;20043;-42
2022/04/16 05:44:12;;;;;;;32.00;15.60;;;;;;;8.57;67.53;101541.47;4989725;28;20049;-42
2022/04/16 05:46:39;;;;;;;32.78;16.73;;;;;;;8.57;67.05;101536.31;4991166;28;20426;-42
2022/04/16 05:49:05;;;;;;;34.47;15.18;;;;;;;8.56;68.42;101547.47;4987009;28;20046;-40
2022/04/16 05:51:32;;;;;;;33.08;14.38;;;;;;;8.57;68.49;101544.06;4990721;28;20090;-41
2022/04/16 05:54:02;;;;;;;31.50;14.63;;;;;;;8.58;67.41;101553.56;4988122;28;20763;-39
2022/04/16 05:56:30;;;;;;;34.88;14.55;;;;;;;8.61;67.14;101553.63;4978910;28;20540;-42
2022/04/16 05:58:59;;;;;;;31.33;15.05;;;;;;;8.63;67.56;101552.00;4981514;28;20101;-38
2022/04/16 06:01:25;;;;;;;32.47;14.82;;;;;;;8.69;68.00;101547.03;4976914;28;20058;-40
2022/04/16 06:03:52;;;;;;;36.72;16.20;;;;;;;8.76;67.34;101553.22;4979538;28;20562;-40
2022/04/16 06:06:19;;;;;;;34.25;14.27;;;;;;;8.80;67.25;101556.78;4986184;28;20050;-40
2022/04/16 06:08:45;;;;;;;32.83;15.77;;;;;;;8.84;67.74;101561.19;4977584;28;20430;-43
2022/04/16 06:11:12;;;;;;;31.35;14.73;;;;;;;8.89;68.29;101558.75;4976764;28;20046;-41
2022/04/16 06:13:39;;;;;;;34.63;15.00;;;;;;;8.94;67.71;101572.66;4975191;28;20054;-40
2022/04/16 06:16:06;;;;;;;38.83;16.52;;;;;;;8.97;68.73;101563.31;4980109;28;20058;-42
2022/04/16 06:18:33;;;;;;;40.78;16.17;;;;;;;9.06;68.07;101559.22;4983566;28;20077;-46
2022/04/16 06:20:59;;;;;;;32.75;16.08;;;;;;;9.12;68.44;101559.41;4986026;28;20113;-41
2022/04/16 06:23:26;;;;;;;35.13;16.48;;;;;;;9.21;68.10;101557.06;4984518;28;20128;-41
2022/04/16 06:25:52;;;;;;;39.20;17.90;;;;;;;9.25;68.16;101558.00;4985331;28;20632;-43
2022/04/16 06:28:19;;;;;;;38.25;15.82;;;;;;;9.33;68.62;101556.53;4987317;28;20490;-42
2022/04/16 06:30:45;;;;;;;36.72;19.00;;;;;;;9.40;68.76;101557.56;4986443;28;20703;-43
2022/04/16 06:33:12;;;;;;;37.10;16.38;;;;;;;9.46;69.10;101556.84;4980012;28;20046;-46
2022/04/16 06:35:38;;;;;;;37.20;17.60;;;;;;;9.47;69.32;101562.06;4988879;28;20108;-43
2022/04/16 06:38:05;;;;;;;36.45;16.50;;;;;;;9.49;68.62;101552.63;4983842;28;20066;-40
2022/04/16 06:40:32;;;;;;;37.90;18.20;;;;;;;9.58;69.31;101556.28;4987017;28;20050;-42
2022/04/16 06:42:59;;;;;;;35.75;16.92;;;;;;;9.63;69.51;101558.16;4984731;28;20141;-43
2022/04/16 06:45:26;;;;;;;36.47;18.83;;;;;;;9.71;69.26;101558.34;4984064;28;20442;-39
2022/04/16 06:47:53;;;;;;;33.55;15.52;;;;;;;9.78;70.31;101556.78;4987602;28;20081;-41
2022/04/16 06:50:37;;;;;;;35.83;16.98;;;;;;;10.15;69.95;101559.38;4984074;28;20162;-41
2022/04/16 06:53:04;;;;;;;40.45;17.55;;;;;;;10.69;69.61;101562.34;4984525;28;20046;-42
2022/04/16 06:55:30;;;;;;;36.25;15.93;;;;;;;11.21;69.38;101561.63;4982301;28;20046;-40
2022/04/16 06:57:57;;;;;;;34.50;15.10;;;;;;;11.60;67.91;101558.84;4985333;28;20105;-40
2022/04/16 07:00:23;;;;;;;33.67;15.20;;;;;;;11.97;67.32;101559.47;4983521;28;20054;-41
2022/04/16 07:02:50;;;;;;;34.45;15.07;;;;;;;12.36;65.84;101561.81;4986775;28;20054;-41
2022/04/16 07:05:23;;;;;;;35.58;17.20;;;;;;;12.71;64.88;101564.00;4985245;28;20459;-41
2022/04/16 07:07:50;;;;;;;37.80;18.40;;;;;;;13.03;64.39;101570.47;4987792;28;20454;-41
2022/04/16 07:10:16;;;;;;;32.53;14.43;;;;;;;13.40;64.91;101570.00;4990467;28;20113;-43
2022/04/16 07:12:43;;;;;;;33.40;14.05;;;;;;;13.72;63.20;101566.84;4982499;28;20046;-43
2022/04/16 07:15:10;;;;;;;33.53;14.10;;;;;;;13.98;62.06;101571.34;4984709;28;20108;-41
2022/04/16 07:17:36;;;;;;;30.42;13.88;;;;;;;14.20;62.29;101566.31;4986909;28;20108;-41
2022/04/16 07:20:03;;;;;;;31.50;13.32;;;;;;;14.54;61.28;101574.34;4983572;28;20118;-40
2022/04/16 07:22:30;;;;;;;31.13;14.35;;;;;;;14.98;60.77;101574.56;4989295;28;20046;-41
2022/04/16 07:24:57;;;;;;;29.48;13.32;;;;;;;15.28;59.79;101567.69;4986370;28;20054;-41
2022/04/16 07:27:23;;;;;;;28.25;12.90;;;;;;;15.46;58.61;101576.38;4987371;28;20054;-43
2022/04/16 07:29:52;;;;;;;33.05;15.05;;;;;;;15.74;58.45;101581.66;4987636;28;20431;-40
2022/04/16 07:32:19;;;;;;;28.23;12.50;;;;;;;16.04;56.74;101574.69;4982997;28;20050;-40
2022/04/16 07:34:45;;;;;;;28.70;13.20;;;;;;;16.37;57.44;101575.53;4980536;28;20049;-43
2022/04/16 07:37:12;;;;;;;26.33;11.25;;;;;;;16.62;56.25;101583.28;4983224;28;20518;-40
2022/04/16 07:39:40;;;;;;;31.73;12.57;;;;;;;16.92;56.18;101586.66;4988715;28;20054;-43
2022/04/16 07:42:07;;;;;;;28.90;13.93;;;;;;;17.17;55.61;101581.34;4984049;28;20383;-41
2022/04/16 07:44:35;;;;;;;28.83;11.88;;;;;;;17.17;54.86;101583.09;4982308;28;20042;-41
2022/04/16 07:47:01;;;;;;;28.95;12.77;;;;;;;17.33;54.70;101592.56;4982360;28;20058;-43
2022/04/16 07:49:28;;;;;;;29.98;11.85;;;;;;;17.55;54.09;101588.94;4978166;28;20092;-45
2022/04/16 07:51:54;;;;;;;27.08;11.98;;;;;;;17.76;53.18;101589.69;4980526;28;20050;-42
2022/04/16 07:54:21;;;;;;;31.50;13.88;;;;;;;18.00;53.04;101588.56;4984165;28;20647;-40
2022/04/16 07:56:48;;;;;;;28.73;11.40;;;;;;;18.22;52.62;101584.03;4983002;28;20482;-42
2022/04/16 07:59:15;;;;;;;30.27;11.23;;;;;;;18.47;51.72;101593.38;4980391;28;20089;-40
2022/04/16 08:01:42;;;;;;;33.08;11.70;;;;;;;18.69;51.38;101593.16;4981235;28;20104;-44
2022/04/16 08:04:08;;;;;;;29.52;12.63;;;;;;;18.95;51.07;101589.34;4980920;28;21653;-43
2022/04/16 08:06:35;;;;;;;27.92;11.07;;;;;;;19.02;50.29;101586.59;4985168;28;20055;-46
2022/04/16 08:09:03;;;;;;;29.23;12.90;;;;;;;19.26;50.90;101584.53;4978951;28;20384;-44
2022/04/16 08:11:31;;;;;;;30.92;11.25;;;;;;;19.55;50.26;101594.66;4984176;28;20046;-41
2022/04/16 08:13:58;;;;;;;31.42;12.05;;;;;;;19.68;50.02;101585.66;4985594;28;20053;-42
2022/04/16 08:16:24;;;;;;;26.35;11.30;;;;;;;19.88;49.45;101581.81;4988146;28;20053;-45
2022/04/16 08:18:51;;;;;;;25.92;10.20;;;;;;;19.96;48.89;101579.91;4985398;28;20906;-41
2022/04/16 08:21:18;;;;;;;30.92;11.27;;;;;;;20.04;47.90;101582.47;4987083;28;20557;-41
2022/04/16 08:24:13;;;;;;;27.55;10.90;;;;;;;20.16;48.64;101581.34;4983488;28;20053;-42
2022/04/16 08:26:57;;;;;;;24.38;10.23;;;;;;;20.10;47.74;101577.06;4985268;28;20083;-44
2022/04/16 08:29:23;;;;;;;26.60;10.63;;;;;;;20.11;48.08;101572.69;4985314;28;20050;-44
2022/04/16 08:31:50;;;;;;;29.30;11.10;;;;;;;20.25;48.38;101575.06;4986039;28;20070;-45
2022/04/16 08:34:36;;;;;;;29.42;10.38;;;;;;;20.37;47.90;101579.22;4987468;28;20129;-41
2022/04/16 08:37:03;;;;;;;30.15;11.45;;;;;;;20.27;47.53;101579.38;4987740;28;20086;-42
2022/04/16 08:39:30;;;;;;;25.70;10.77;;;;;;;20.25;47.06;101578.56;4985443;28;20073;-44
2022/04/16 08:41:57;;;;;;;25.65;10.82;;;;;;;20.26;47.10;101588.19;4988462;28;20046;-46
2022/04/16 08:44:26;;;;;;;21.95;9.00;;;;;;;20.26;47.32;101572.41;4985204;28;20481;-42
2022/04/16 08:46:54;;;;;;;22.63;10.32;;;;;;;20.31;47.31;101580.22;4986866;28;20054;-40
2022/04/16 08:49:21;;;;;;;28.20;11.30;;;;;;;20.42;47.55;101580.00;4989622;28;20046;-44
2022/04/16 08:51:48;;;;;;;23.98;10.10;;;;;;;20.50;46.62;101585.97;4988328;28;20124;-47
2022/04/16 08:54:15;;;;;;;22.63;10.15;;;;;;;20.60;46.68;101585.81;4983963;28;20498;-46
2022/04/16 08:56:42;;;;;;;24.67;9.45;;;;;;;20.62;45.97;101590.13;4989055;28;20136;-43
2022/04/16 08:59:09;;;;;;;20.85;8.70;;;;;;;20.54;46.37;101585.00;4988770;28;20116;-43
2022/04/16 09:01:36;;;;;;;23.85;9.93;;;;;;;20.48;45.82;101585.16;4994086;28;20072;-45
2022/04/16 09:04:03;;;;;;;22.45;9.60;;;;;;;20.64;45.74;101590.09;4986750;28;20105;-44
2022/04/16 09:06:30;;;;;;;26.55;10.10;;;;;;;20.70;46.13;101587.34;4986615;28;20085;-44
2022/04/16 09:08:56;;;;;;;23.60;9.30;;;;;;;20.77;45.76;101588.94;4987270;28;20050;-43
2022/04/16 09:11:24;;;;;;;23.35;10.38;;;;;;;20.96;45.96;101591.22;4991730;28;20506;-44
2022/04/16 09:13:55;;;;;;;22.42;10.20;;;;;;;21.04;45.50;101591.91;4985480;28;20050;-44
2022/04/16 09:16:23;;;;;;;24.90;10.02;;;;;;;21.21;45.75;101592.44;4990730;28;20057;-45
2022/04/16 09:18:52;;;;;;;24.95;10.77;;;;;;;21.29;44.92;101588.75;4990818;28;20068;-45
2022/04/16 09:21:20;;;;;;;;;;;;;;;21.25;44.34;101586.19;4989251;28;20046;-43
2022/04/16 09:23:50;;;;;;;25.17;12.88;;;;;;;21.51;45.07;101580.31;4987670;28;20293;-40
2022/04/16 09:26:34;;;;;;;29.13;11.63;;;;;;;21.69;44.77;101581.59;4986068;28;20186;-46
2022/04/16 09:29:06;;;;;;;25.83;11.02;;;;;;;21.92;45.26;101588.09;4991034;28;20729;-43
2022/04/16 09:31:35;;;;;;;24.92;10.77;;;;;;;22.16;44.80;101576.97;4985556;28;20050;-45
2022/04/16 09:34:02;;;;;;;26.42;10.98;;;;;;;22.31;44.31;101575.66;4988261;28;20090;-43
2022/04/16 09:36:28;;;;;;;26.70;11.27;;;;;;;22.46;43.94;101577.00;4989005;28;20062;-43
2022/04/16 09:39:05;;;;;;;26.25;11.05;;;;;;;22.75;43.78;101579.72;4988399;28;20101;-46
2022/04/16 09:41:36;;;;;;;28.52;11.82;;;;;;;23.02;43.46;101583.31;5001359;28;20482;-43
2022/04/16 09:44:03;;;;;;;25.52;11.95;;;;;;;23.08;43.93;101577.84;4987019;28;21445;-45
2022/04/16 09:46:31;;;;;;;26.25;11.35;;;;;;;23.07;43.86;101577.91;4988975;28;20108;-46
2022/04/16 09:49:02;;;;;;;27.88;11.52;;;;;;;23.09;43.06;101573.41;4986647;28;20065;-43
2022/04/16 09:51:35;;;;;;;28.45;14.23;;;;;;;23.21;42.61;101578.31;4989550;28;20378;-45
2022/04/16 09:54:04;;;;;;;32.35;13.93;;;;;;;23.60;43.02;101577.09;4986056;28;20042;-44
2022/04/16 09:56:34;;;;;;;32.78;15.30;;;;;;;23.95;42.96;101575.97;4981160;28;20423;-44
2022/04/16 09:59:04;;;;;;;25.80;11.60;;;;;;;23.94;41.50;101576.88;4984498;28;20047;-49
2022/04/16 10:01:32;;;;;;;31.05;14.25;;;;;;;23.72;41.92;101567.91;4983077;28;20592;-45
2022/04/16 10:04:01;;;;;;;30.13;13.98;;;;;;;23.90;42.20;101569.94;4982978;28;20047;-45
2022/04/16 10:06:30;;;;;;;28.85;13.45;;;;;;;23.80;41.41;101569.41;4982966;28;20050;-46
2022/04/16 10:08:58;;;;;;;31.67;14.20;;;;;;;23.76;41.89;101568.66;5010270;28;20043;-43
2022/04/16 10:12:59;;;;;;;31.00;13.98;;;;;;;23.73;42.38;101571.41;4986102;28;20514;-42
2022/04/16 10:14:24;;;;;;;28.40;12.80;;;;;;;23.46;41.00;101571.41;4979198;28;20164;-45
2022/04/16 10:17:06;;;;;;;29.58;13.52;;;;;;;23.18;41.27;101567.88;4974486;28;20122;-43
2022/04/16 10:19:44;;;;;;;27.60;12.25;;;;;;;22.96;41.84;101562.38;4976930;28;20077;-47
2022/04/16 10:22:23;;;;;;;26.88;13.52;;;;;;;22.80;43.39;101562.81;4982660;28;20042;-43
2022/04/16 10:24:51;;;;;;;29.33;13.95;;;;;;;22.88;43.21;101564.38;4962228;28;20050;-43
2022/04/16 10:27:27;;;;;;;28.17;13.57;;;;;;;22.65;43.80;101574.72;4979922;28;20475;-43
2022/04/16 10:30:03;;;;;;;27.40;12.85;;;;;;;22.65;43.77;101563.28;4974548;28;20100;-44
2022/04/16 10:32:39;;;;;;;28.27;12.98;;;;;;;22.50;44.26;101570.75;4976406;28;20066;-44
2022/04/16 10:35:12;;;;;;;26.63;12.18;;;;;;;22.67;43.75;101566.75;4981187;28;20062;-46
2022/04/16 10:37:41;;;;;;;33.63;14.43;;;;;;;22.71;43.91;101568.41;4980092;28;20112;-45
2022/04/16 10:40:25;;;;;;;30.45;13.63;;;;;;;22.65;43.00;101573.84;4982184;28;20073;-43
2022/04/16 10:42:58;;;;;;;32.38;14.60;;;;;;;22.62;43.03;101568.69;4982195;28;20383;-45
2022/04/16 10:45:25;;;;;;;30.30;14.30;;;;;;;22.79;43.29;101574.31;4984894;28;20050;-47
2022/04/16 10:47:54;;;;;;;28.25;12.95;;;;;;;22.79;43.73;101574.31;4979965;28;20057;-47
2022/04/16 10:50:22;;;;;;;28.92;13.45;;;;;;;22.72;43.57;101570.13;4975019;28;20232;-45
2022/04/16 10:55:49;;;;;;;27.83;13.40;;;;;;;22.70;43.63;101566.69;5137154;27;20490;-45
2022/04/16 10:58:26;;;;;;;27.90;14.07;;;;;;;22.68;43.67;101563.19;5111061;28;20051;-42
2022/04/16 11:01:05;;;;;;;30.50;13.10;;;;;;;22.50;43.42;101559.31;5120564;28;20089;-42
2022/04/16 11:03:31;;;;;;;35.58;15.00;;;;;;;22.33;44.29;101566.78;5109767;28;20134;-43
2022/04/16 11:06:07;;;;;;;27.52;13.65;;;;;;;22.48;43.72;101564.63;5114605;27;20075;-42
2022/04/16 11:08:34;;;;;;;;;;;;;;;22.65;44.57;101564.16;5110474;27;20047;-44
2022/04/16 11:11:06;;;;;;;28.58;13.38;;;;;;;22.70;44.25;101566.69;5110770;27;20337;-44
2022/04/16 11:13:34;;;;;;;26.63;13.13;;;;;;;23.02;43.46;101558.66;5110805;28;20036;-41
2022/04/16 11:16:02;;;;;;;27.27;13.70;;;;;;;23.09;42.88;101554.91;5115269;28;20046;-39
2022/04/16 11:18:49;;;;;;;29.48;14.00;;;;;;;23.16;43.00;101560.88;5114046;28;20097;-43
2022/04/16 11:21:25;;;;;;;33.22;14.98;;;;;;;23.53;42.53;101550.91;5110844;28;20048;-43
2022/04/16 11:23:53;;;;;;;23.90;13.18;;;;;;;23.30;41.74;101555.16;5107999;27;20047;-46
2022/04/16 11:34:51;;;;;;;26.10;14.70;;;;;;;22.13;43.72;101542.72;5129030;27;20043;-46
2022/04/16 11:37:32;;;;;;;33.35;15.15;;;;;;;22.04;43.82;101547.34;5134296;27;20043;-43
2022/04/16 11:40:02;;;;;;;21.25;10.93;;;;;;;22.05;44.21;101546.44;5115549;27;20429;-47
2022/04/16 11:42:30;;;;;;;25.33;14.02;;;;;;;22.15;45.01;101546.22;5119089;28;20471;-44